TJPS/PSE METAR and TAF weather

Enter ICAO airport designator
Station Type Date Time Source
TJPS METAR 2024/04/15 09:15 UTC NOAA

TJPS 150915Z AUTO 00000KT 10SM BKN034 25/22 A2989 RMK AO2 PWINO


Station Type Date Time Source
TJPS Decoded METAR 2024/04/15 09:15 UTC NOAA

Ponce, Mercedita Airport, PR, United States (TJPS) 18-01N 066-34W
Apr 15, 2024 - 05:15 AM EDT / 2024.04.15 0915 UTC
Wind: Calm:0
Visibility: 10 mile(s):0
Sky conditions: mostly cloudy
Temperature: 77 F (25 C)
Dew Point: 71 F (22 C)
Relative Humidity: 83%
Pressure (altimeter): 29.89 in. Hg (1012 hPa)
ob: TJPS 150915Z AUTO 00000KT 10SM BKN034 25/22 A2989 RMK AO2 PWINO
cycle: 9

Station Type Date Time Source
TJPS TAF 2024/04/15 09:24 UTC NOAA